FMEE/RUN METAR and TAF weather

Enter ICAO airport designator
Station Type Date Time Source
FMEE METAR 2018/01/17 06:39 UTC NOAA

FMEE 170639Z 11026G36KT 9999 FEW026TCU SCT033 27/21 Q1006 NOSIG


Station Type Date Time Source
FMEE Decoded METAR 2018/01/17 06:39 UTC NOAA

Saint-Denis / Gillot, Reunion (FMEE) 20-53S 055-31E 25M
Jan 17, 2018 - 01:39 AM EST / 2018.01.17 0639 UTC
Wind: from the ESE (110 degrees) at 30 MPH (26 KT) gusting to 41 MPH (36 KT):0
Visibility: greater than 7 mile(s):0
Sky conditions: partly cloudy
Weather: Towering cumulus clouds observed
Temperature: 80 F (27 C)
Dew Point: 69 F (21 C)
Relative Humidity: 69%
Pressure (altimeter): 29.71 in. Hg (1006 hPa)
ob: FMEE 170639Z 11026G36KT 9999 FEW026TCU SCT033 27/21 Q1006 NOSIG
cycle: 6

Station Type Date Time Source
FMEE TAF 2018/01/17 06:15 UTC NOAA

TAF FMEE 170500Z 1706/1812 12026KT 9999 FEW033 SCT081
TEMPO 1706/1724 13020G35KT
TEMPO 1717/1719 SHRA
TEMPO 1801/1811 27012KT 1500 SHRA FEW015CB BKN040


Example: see airport list